sensor_id;sensor_type;location;lat;lon;timestamp;P1;durP1;ratioP1;P2;durP2;ratioP2
57335;SDS011;43171;50.994;18.204;2023-02-26T00:00:27;4.40;;;3.60;;
57335;SDS011;43171;50.994;18.204;2023-02-26T00:02:53;7.70;;;5.40;;
57335;SDS011;43171;50.994;18.204;2023-02-26T00:12:36;8.20;;;4.20;;
57335;SDS011;43171;50.994;18.204;2023-02-26T00:22:29;4.80;;;4.20;;
57335;SDS011;43171;50.994;18.204;2023-02-26T00:32:12;8.60;;;5.30;;
57335;SDS011;43171;50.994;18.204;2023-02-26T00:41:58;4.50;;;4.10;;
57335;SDS011;43171;50.994;18.204;2023-02-26T00:52:09;13.30;;;4.80;;
57335;SDS011;43171;50.994;18.204;2023-02-26T01:01:55;5.90;;;5.30;;
57335;SDS011;43171;50.994;18.204;2023-02-26T01:06:51;8.90;;;5.50;;
57335;SDS011;43171;50.994;18.204;2023-02-26T01:16:37;5.10;;;4.20;;
57335;SDS011;43171;50.994;18.204;2023-02-26T01:26:32;9.60;;;6.40;;
57335;SDS011;43171;50.994;18.204;2023-02-26T01:36:20;2.00;;;1.90;;
57335;SDS011;43171;50.994;18.204;2023-02-26T01:56:55;5.20;;;3.60;;
57335;SDS011;43171;50.994;18.204;2023-02-26T02:06:42;4.20;;;2.80;;
57335;SDS011;43171;50.994;18.204;2023-02-26T02:14:21;8.00;;;4.90;;
57335;SDS011;43171;50.994;18.204;2023-02-26T02:45:15;8.00;;;2.60;;
57335;SDS011;43171;50.994;18.204;2023-02-26T02:55:25;6.40;;;2.80;;
57335;SDS011;43171;50.994;18.204;2023-02-26T03:05:40;3.80;;;3.40;;
57335;SDS011;43171;50.994;18.204;2023-02-26T03:15:32;4.50;;;3.10;;
57335;SDS011;43171;50.994;18.204;2023-02-26T03:25:45;6.30;;;4.00;;
57335;SDS011;43171;50.994;18.204;2023-02-26T03:45:42;3.30;;;2.80;;
57335;SDS011;43171;50.994;18.204;2023-02-26T03:55:30;4.10;;;3.10;;
57335;SDS011;43171;50.994;18.204;2023-02-26T04:05:40;4.90;;;3.10;;
57335;SDS011;43171;50.994;18.204;2023-02-26T04:15:27;4.90;;;3.70;;
57335;SDS011;43171;50.994;18.204;2023-02-26T04:20:19;7.70;;;5.40;;
57335;SDS011;43171;50.994;18.204;2023-02-26T04:30:01;2.70;;;2.50;;
57335;SDS011;43171;50.994;18.204;2023-02-26T04:39:43;5.10;;;3.50;;
57335;SDS011;43171;50.994;18.204;2023-02-26T04:49:25;5.70;;;4.00;;
57335;SDS011;43171;50.994;18.204;2023-02-26T04:51:50;6.70;;;5.30;;
57335;SDS011;43171;50.994;18.204;2023-02-26T05:01:32;7.20;;;4.20;;
57335;SDS011;43171;50.994;18.204;2023-02-26T05:11:14;7.20;;;4.50;;
57335;SDS011;43171;50.994;18.204;2023-02-26T05:20:57;4.80;;;3.50;;
57335;SDS011;43171;50.994;18.204;2023-02-26T05:30:40;5.80;;;3.40;;
57335;SDS011;43171;50.994;18.204;2023-02-26T05:40:22;12.90;;;3.20;;
57335;SDS011;43171;50.994;18.204;2023-02-26T05:45:14;7.10;;;5.10;;
57335;SDS011;43171;50.994;18.204;2023-02-26T05:54:56;2.70;;;2.20;;
57335;SDS011;43171;50.994;18.204;2023-02-26T06:04:38;6.50;;;3.80;;
57335;SDS011;43171;50.994;18.204;2023-02-26T06:07:04;6.90;;;4.80;;
57335;SDS011;43171;50.994;18.204;2023-02-26T06:16:46;5.50;;;3.50;;
57335;SDS011;43171;50.994;18.204;2023-02-26T06:19:11;5.00;;;4.30;;
57335;SDS011;43171;50.994;18.204;2023-02-26T06:28:55;5.30;;;3.70;;
57335;SDS011;43171;50.994;18.204;2023-02-26T06:38:37;5.40;;;3.70;;
57335;SDS011;43171;50.994;18.204;2023-02-26T06:48:23;4.50;;;3.10;;
57335;SDS011;43171;50.994;18.204;2023-02-26T06:58:09;9.80;;;4.10;;
57335;SDS011;43171;50.994;18.204;2023-02-26T07:07:53;4.50;;;2.90;;
57335;SDS011;43171;50.994;18.204;2023-02-26T07:17:38;2.90;;;2.40;;
57335;SDS011;43171;50.994;18.204;2023-02-26T07:27:24;8.60;;;4.20;;
57335;SDS011;43171;50.994;18.204;2023-02-26T07:37:06;2.50;;;2.10;;
57335;SDS011;43171;50.994;18.204;2023-02-26T07:46:48;4.90;;;3.60;;
57335;SDS011;43171;50.994;18.204;2023-02-26T07:56:38;11.20;;;8.50;;
57335;SDS011;43171;50.994;18.204;2023-02-26T08:06:22;5.60;;;3.40;;
57335;SDS011;43171;50.994;18.204;2023-02-26T08:16:03;5.60;;;3.70;;
57335;SDS011;43171;50.994;18.204;2023-02-26T08:25:45;4.70;;;2.50;;
57335;SDS011;43171;50.994;18.204;2023-02-26T08:35:27;4.40;;;2.80;;
57335;SDS011;43171;50.994;18.204;2023-02-26T08:45:10;3.50;;;2.30;;
57335;SDS011;43171;50.994;18.204;2023-02-26T08:54:54;2.20;;;2.00;;
57335;SDS011;43171;50.994;18.204;2023-02-26T09:04:36;3.00;;;2.30;;
57335;SDS011;43171;50.994;18.204;2023-02-26T09:07:02;6.40;;;4.60;;
57335;SDS011;43171;50.994;18.204;2023-02-26T09:16:44;3.20;;;2.70;;
57335;SDS011;43171;50.994;18.204;2023-02-26T09:26:26;2.70;;;2.50;;
57335;SDS011;43171;50.994;18.204;2023-02-26T09:36:08;3.90;;;2.50;;
57335;SDS011;43171;50.994;18.204;2023-02-26T09:45:59;6.70;;;2.70;;
57335;SDS011;43171;50.994;18.204;2023-02-26T09:56:06;4.60;;;4.20;;
57335;SDS011;43171;50.994;18.204;2023-02-26T10:13:54;5.20;;;3.30;;
57335;SDS011;43171;50.994;18.204;2023-02-26T10:23:59;5.50;;;3.00;;
57335;SDS011;43171;50.994;18.204;2023-02-26T10:34:30;2.90;;;2.70;;
57335;SDS011;43171;50.994;18.204;2023-02-26T10:44:55;3.60;;;3.20;;
57335;SDS011;43171;50.994;18.204;2023-02-26T11:05:38;6.60;;;4.00;;
57335;SDS011;43171;50.994;18.204;2023-02-26T11:15:39;9.70;;;4.40;;
57335;SDS011;43171;50.994;18.204;2023-02-26T11:25:27;5.50;;;4.00;;
57335;SDS011;43171;50.994;18.204;2023-02-26T11:35:22;6.40;;;3.10;;
57335;SDS011;43171;50.994;18.204;2023-02-26T11:45:15;3.60;;;2.60;;
57335;SDS011;43171;50.994;18.204;2023-02-26T11:55:16;5.20;;;3.50;;
57335;SDS011;43171;50.994;18.204;2023-02-26T12:05:13;1.00;;;1.00;;
57335;SDS011;43171;50.994;18.204;2023-02-26T12:15:31;11.70;;;6.00;;
57335;SDS011;43171;50.994;18.204;2023-02-26T13:17:50;20.70;;;8.80;;
57335;SDS011;43171;50.994;18.204;2023-02-26T13:27:58;13.30;;;3.30;;
57335;SDS011;43171;50.994;18.204;2023-02-26T13:38:05;7.50;;;1.40;;
57335;SDS011;43171;50.994;18.204;2023-02-26T13:58:51;2.70;;;1.50;;
57335;SDS011;43171;50.994;18.204;2023-02-26T14:40:05;1.00;;;1.00;;
57335;SDS011;43171;50.994;18.204;2023-02-26T14:50:21;2.20;;;1.80;;
57335;SDS011;43171;50.994;18.204;2023-02-26T15:00:36;1.90;;;1.20;;
57335;SDS011;43171;50.994;18.204;2023-02-26T15:21:22;3.20;;;2.70;;
57335;SDS011;43171;50.994;18.204;2023-02-26T15:31:30;14.30;;;7.70;;
57335;SDS011;43171;50.994;18.204;2023-02-26T15:41:21;6.60;;;3.40;;
57335;SDS011;43171;50.994;18.204;2023-02-26T15:51:36;9.00;;;5.00;;
57335;SDS011;43171;50.994;18.204;2023-02-26T16:01:26;6.70;;;3.90;;
57335;SDS011;43171;50.994;18.204;2023-02-26T16:21:39;3.70;;;2.20;;
57335;SDS011;43171;50.994;18.204;2023-02-26T16:31:29;18.40;;;4.40;;
57335;SDS011;43171;50.994;18.204;2023-02-26T16:41:36;10.30;;;5.40;;
57335;SDS011;43171;50.994;18.204;2023-02-26T16:51:43;14.80;;;5.30;;
57335;SDS011;43171;50.994;18.204;2023-02-26T17:12:14;15.00;;;7.30;;
57335;SDS011;43171;50.994;18.204;2023-02-26T17:22:23;9.90;;;2.70;;
57335;SDS011;43171;50.994;18.204;2023-02-26T17:32:23;7.00;;;4.60;;
57335;SDS011;43171;50.994;18.204;2023-02-26T17:46:20;13.50;;;7.20;;
57335;SDS011;43171;50.994;18.204;2023-02-26T17:56:25;16.00;;;7.30;;
57335;SDS011;43171;50.994;18.204;2023-02-26T18:06:10;20.90;;;9.80;;
57335;SDS011;43171;50.994;18.204;2023-02-26T18:15:57;17.00;;;7.80;;
57335;SDS011;43171;50.994;18.204;2023-02-26T18:25:41;31.10;;;13.20;;
57335;SDS011;43171;50.994;18.204;2023-02-26T18:35:46;33.40;;;12.90;;
57335;SDS011;43171;50.994;18.204;2023-02-26T18:45:37;20.50;;;8.50;;
57335;SDS011;43171;50.994;18.204;2023-02-26T18:55:20;13.10;;;8.20;;
57335;SDS011;43171;50.994;18.204;2023-02-26T18:57:45;23.60;;;12.60;;
57335;SDS011;43171;50.994;18.204;2023-02-26T19:07:29;24.80;;;11.80;;
57335;SDS011;43171;50.994;18.204;2023-02-26T19:17:13;19.70;;;9.50;;
57335;SDS011;43171;50.994;18.204;2023-02-26T19:26:59;18.00;;;8.80;;
57335;SDS011;43171;50.994;18.204;2023-02-26T19:36:41;18.50;;;5.90;;
57335;SDS011;43171;50.994;18.204;2023-02-26T19:46:29;8.60;;;3.50;;
57335;SDS011;43171;50.994;18.204;2023-02-26T19:56:14;9.70;;;3.10;;
57335;SDS011;43171;50.994;18.204;2023-02-26T20:05:58;9.00;;;4.30;;
57335;SDS011;43171;50.994;18.204;2023-02-26T20:15:44;8.90;;;3.80;;
57335;SDS011;43171;50.994;18.204;2023-02-26T20:25:27;20.10;;;5.20;;
57335;SDS011;43171;50.994;18.204;2023-02-26T20:35:10;11.00;;;5.10;;
57335;SDS011;43171;50.994;18.204;2023-02-26T20:44:54;16.90;;;7.60;;
57335;SDS011;43171;50.994;18.204;2023-02-26T20:54:40;10.90;;;5.70;;
57335;SDS011;43171;50.994;18.204;2023-02-26T21:04:23;17.50;;;6.50;;
57335;SDS011;43171;50.994;18.204;2023-02-26T21:06:49;20.30;;;9.60;;
57335;SDS011;43171;50.994;18.204;2023-02-26T21:16:32;41.80;;;7.60;;
57335;SDS011;43171;50.994;18.204;2023-02-26T21:26:18;18.60;;;10.80;;
57335;SDS011;43171;50.994;18.204;2023-02-26T21:36:04;11.80;;;7.70;;
57335;SDS011;43171;50.994;18.204;2023-02-26T21:45:49;15.20;;;6.80;;
57335;SDS011;43171;50.994;18.204;2023-02-26T21:55:31;25.90;;;4.20;;
57335;SDS011;43171;50.994;18.204;2023-02-26T22:05:14;10.60;;;3.90;;
57335;SDS011;43171;50.994;18.204;2023-02-26T22:15:02;6.90;;;3.30;;
57335;SDS011;43171;50.994;18.204;2023-02-26T22:24:46;11.20;;;6.10;;
57335;SDS011;43171;50.994;18.204;2023-02-26T22:34:29;17.40;;;6.70;;
57335;SDS011;43171;50.994;18.204;2023-02-26T22:44:14;9.70;;;6.70;;
57335;SDS011;43171;50.994;18.204;2023-02-26T23:01:13;7.10;;;1.80;;
57335;SDS011;43171;50.994;18.204;2023-02-26T23:10:56;6.10;;;3.40;;
57335;SDS011;43171;50.994;18.204;2023-02-26T23:20:39;2.40;;;2.20;;
57335;SDS011;43171;50.994;18.204;2023-02-26T23:30:22;1.80;;;1.40;;
57335;SDS011;43171;50.994;18.204;2023-02-26T23:47:23;4.80;;;2.30;;
57335;SDS011;43171;50.994;18.204;2023-02-26T23:57:07;5.00;;;2.80;;
